createdAt,value
2023-01-11T00:00:56.809Z,99.44
2023-01-11T00:03:35.600Z,99.41
2023-01-11T00:10:01.458Z,99.00
2023-01-11T00:12:46.883Z,98.84
2023-01-11T00:16:16.457Z,99.07
2023-01-11T00:21:58.538Z,99.14
2023-01-11T00:25:30.192Z,99.13
2023-01-11T00:28:56.039Z,99.48
2023-01-11T00:32:33.206Z,99.48
2023-01-11T00:35:33.447Z,99.33
2023-01-11T00:38:02.375Z,99.35
2023-01-11T00:40:32.981Z,99.30
2023-01-11T00:43:18.813Z,99.71
2023-01-11T00:52:27.640Z,99.85
2023-01-11T00:54:57.459Z,99.79
2023-01-11T00:57:24.384Z,99.78
2023-01-11T01:03:32.500Z,99.61
2023-01-11T01:06:02.243Z,99.23
2023-01-11T01:08:28.853Z,99.54
2023-01-11T01:10:58.167Z,99.98
2023-01-11T01:13:46.480Z,99.51
2023-01-11T01:16:58.512Z,99.73
2023-01-11T01:19:31.662Z,99.35
2023-01-11T01:25:24.362Z,99.58
2023-01-11T01:28:51.450Z,99.31
2023-01-11T01:36:18.055Z,99.81
2023-01-11T01:39:30.722Z,99.71
2023-01-11T01:43:01.072Z,99.55
2023-01-11T01:45:28.957Z,99.91
2023-01-11T01:48:13.646Z,99.43
2023-01-11T01:51:04.073Z,99.68
2023-01-11T01:53:53.497Z,99.73
2023-01-11T01:57:29.610Z,100.00
2023-01-11T02:00:28.300Z,100.00
2023-01-11T02:10:22.885Z,99.81
2023-01-11T02:13:17.872Z,99.99
2023-01-11T02:16:17.194Z,99.64
2023-01-11T02:19:02.211Z,99.80
2023-01-11T02:22:29.207Z,99.53
2023-01-11T02:29:39.015Z,99.84
2023-01-11T02:33:01.784Z,99.82
2023-01-11T02:35:58.546Z,99.79
2023-01-11T02:38:59.415Z,99.71
2023-01-11T02:50:05.823Z,99.92
2023-01-11T02:58:22.557Z,99.65
2023-01-11T03:01:57.937Z,100.00
2023-01-11T03:04:34.248Z,99.80
2023-01-11T03:15:32.603Z,99.95
2023-01-11T03:18:31.081Z,99.77
2023-01-11T03:25:13.300Z,100.00
2023-01-11T03:32:29.165Z,100.00
2023-01-11T03:36:29.440Z,99.83
2023-01-11T03:39:33.612Z,99.75
2023-01-11T03:42:17.195Z,99.83
2023-01-11T03:45:03.494Z,99.86
2023-01-11T03:47:34.818Z,99.67
2023-01-11T03:50:11.948Z,99.83
2023-01-11T03:52:44.094Z,99.87
2023-01-11T03:55:31.617Z,99.86
2023-01-11T03:58:03.922Z,99.69
2023-01-11T04:00:33.936Z,99.82
2023-01-11T04:06:14.068Z,99.90
2023-01-11T04:08:40.868Z,99.84
2023-01-11T04:11:12.084Z,99.90
2023-01-11T04:13:41.816Z,99.98
2023-01-11T04:16:33.559Z,99.65
2023-01-11T04:19:06.373Z,99.78
2023-01-11T04:24:24.625Z,99.78
2023-01-11T04:26:51.321Z,99.95
2023-01-11T04:29:18.459Z,100.00
2023-01-11T04:32:04.155Z,99.92
2023-01-11T04:34:49.087Z,99.72
2023-01-11T04:37:20.246Z,99.47
2023-01-11T04:39:49.622Z,99.62
2023-01-11T04:42:26.082Z,99.82
2023-01-11T04:44:59.422Z,99.91
2023-01-11T04:47:26.388Z,99.57
2023-01-11T04:50:02.381Z,99.98
2023-01-11T04:52:44.977Z,99.96
2023-01-11T04:55:12.973Z,99.51
2023-01-11T05:01:31.531Z,99.84
2023-01-11T05:04:58.187Z,99.72
2023-01-11T05:08:26.838Z,99.91
2023-01-11T05:10:57.383Z,99.43
2023-01-11T05:14:01.760Z,99.75
2023-01-11T05:17:07.281Z,99.54
2023-01-11T05:19:34.436Z,99.65
2023-01-11T05:22:04.392Z,99.60
2023-01-11T05:24:37.844Z,99.92
2023-01-11T05:27:31.123Z,99.77
2023-01-11T05:29:57.773Z,99.29
2023-01-11T05:32:26.478Z,99.60
2023-01-11T05:35:34.030Z,99.54
2023-01-11T05:38:04.210Z,99.59
2023-01-11T05:40:34.311Z,99.78
2023-01-11T05:43:01.072Z,99.72
2023-01-11T05:45:32.122Z,99.61
2023-01-11T05:48:19.119Z,99.34
2023-01-11T05:51:58.880Z,99.68
2023-01-11T05:54:32.370Z,99.26
2023-01-11T06:03:29.453Z,99.16
2023-01-11T06:05:59.390Z,99.45
2023-01-11T06:08:26.635Z,99.17
2023-01-11T06:11:59.104Z,99.44
2023-01-11T06:14:25.764Z,99.18
2023-01-11T06:17:59.284Z,99.64
2023-01-11T06:20:29.010Z,99.28
2023-01-11T06:23:04.071Z,99.57
2023-01-11T06:25:30.795Z,99.30
2023-01-11T06:28:01.579Z,99.26
2023-01-11T06:30:28.135Z,99.28
2023-01-11T06:36:24.079Z,99.14
2023-01-11T06:38:55.041Z,98.95
2023-01-11T06:41:36.619Z,99.13
2023-01-11T06:44:07.584Z,99.31
2023-01-11T06:46:37.665Z,98.88
2023-01-11T06:49:30.248Z,99.13
2023-01-11T06:59:39.772Z,98.41
2023-01-11T07:02:09.499Z,98.91
2023-01-11T07:04:40.284Z,98.33
2023-01-11T07:07:06.883Z,98.88
2023-01-11T07:09:33.436Z,98.67
2023-01-11T07:12:00.310Z,98.65
2023-01-11T07:14:26.809Z,97.96
2023-01-11T07:16:53.309Z,98.38
2023-01-11T07:19:19.873Z,98.18
2023-01-11T07:21:47.288Z,97.78
2023-01-11T07:24:14.078Z,97.98
2023-01-11T07:26:42.006Z,98.14
2023-01-11T07:29:09.273Z,97.75
2023-01-11T07:31:36.294Z,97.58
2023-01-11T07:34:03.797Z,98.08
2023-01-11T07:36:30.321Z,97.61
2023-01-11T07:38:59.043Z,97.93
2023-01-11T07:41:49.521Z,97.28
2023-01-11T07:44:19.717Z,98.02
2023-01-11T07:46:46.399Z,97.83
2023-01-11T07:49:12.973Z,97.29
2023-01-11T07:51:39.582Z,97.30
2023-01-11T07:54:06.782Z,97.94
2023-01-11T07:56:33.416Z,97.33
2023-01-11T07:58:59.973Z,97.44
2023-01-11T08:01:26.469Z,97.77
2023-01-11T08:03:53.073Z,97.80
2023-01-11T08:06:19.662Z,97.56
2023-01-11T08:08:46.482Z,97.45
2023-01-11T08:11:31.853Z,97.87
2023-01-11T08:14:16.762Z,97.54
2023-01-11T08:16:43.369Z,97.22
2023-01-11T08:19:10.251Z,97.14
2023-01-11T08:21:36.858Z,97.46
2023-01-11T08:24:03.588Z,97.00
2023-01-11T08:26:31.734Z,97.66
2023-01-11T08:29:00.544Z,96.79
2023-01-11T08:31:30.355Z,97.00
2023-01-11T08:33:56.907Z,96.93
2023-01-11T08:36:25.213Z,96.99
2023-01-11T08:38:55.375Z,96.95
2023-01-11T08:41:22.721Z,96.74
2023-01-11T08:43:50.086Z,97.07
2023-01-11T08:46:22.076Z,96.85
2023-01-11T08:48:48.764Z,97.14
2023-01-11T08:51:18.288Z,97.07
2023-01-11T08:53:45.099Z,97.75
2023-01-11T08:56:12.566Z,97.79
2023-01-11T08:58:39.233Z,96.62
2023-01-11T09:01:09.141Z,97.47
2023-01-11T09:03:36.203Z,97.30
2023-01-11T09:06:03.260Z,97.53
2023-01-11T09:08:29.769Z,97.59
2023-01-11T09:10:56.707Z,96.75
2023-01-11T09:13:23.684Z,97.29
2023-01-11T09:15:53.085Z,96.67
2023-01-11T09:18:19.625Z,97.36
2023-01-11T09:20:46.302Z,97.03
2023-01-11T09:23:15.596Z,96.80
2023-01-11T09:25:42.135Z,97.05
2023-01-11T09:28:08.920Z,96.68
2023-01-11T09:30:36.237Z,96.87
2023-01-11T09:33:04.902Z,96.79
2023-01-11T09:35:33.108Z,96.14
2023-01-11T09:37:59.973Z,96.52
2023-01-11T09:40:41.936Z,96.39
2023-01-11T09:43:14.923Z,95.56
2023-01-11T09:45:48.098Z,96.17
2023-01-11T09:48:58.430Z,95.37
2023-01-11T09:51:59.719Z,94.69
2023-01-11T09:54:27.564Z,94.89
2023-01-11T10:00:40.268Z,89.57
2023-01-11T10:06:53.546Z,90.89
2023-01-11T10:18:37.430Z,90.05
2023-01-11T10:19:39.771Z,89.52
2023-01-11T10:22:57.294Z,85.85
2023-01-11T10:26:28.834Z,84.64
2023-01-11T10:30:02.923Z,79.98
2023-01-11T10:33:01.333Z,78.37
2023-01-11T10:43:45.704Z,78.89
2023-01-11T10:50:40.829Z,77.01
2023-01-11T10:53:26.608Z,74.00
2023-01-11T10:56:03.391Z,72.66
2023-01-11T10:58:57.962Z,73.09
2023-01-11T11:01:50.946Z,73.46
2023-01-11T11:04:34.559Z,67.92
2023-01-11T11:07:06.859Z,68.48
2023-01-11T11:09:53.610Z,73.65
2023-01-11T11:12:30.140Z,70.12
2023-01-11T11:15:14.252Z,70.74
2023-01-11T11:17:51.047Z,70.05
2023-01-11T11:20:28.550Z,70.63
2023-01-11T11:22:58.781Z,71.05
2023-01-11T11:25:33.135Z,72.94
2023-01-11T11:28:07.859Z,73.95
2023-01-11T11:33:32.531Z,73.96
2023-01-11T11:40:00.388Z,76.27
2023-01-11T11:42:30.513Z,76.21
2023-01-11T11:45:18.905Z,80.83
2023-01-11T11:48:05.440Z,76.39
2023-01-11T11:50:44.211Z,74.08
2023-01-11T11:53:22.263Z,75.18
2023-01-11T11:55:50.939Z,73.47
2023-01-11T11:58:21.831Z,76.23
2023-01-11T12:00:50.169Z,77.83
2023-01-11T12:03:27.360Z,77.58
2023-01-11T12:06:03.689Z,78.21
2023-01-11T12:08:32.834Z,79.92
2023-01-11T12:11:03.107Z,80.33
2023-01-11T12:13:35.395Z,81.82
2023-01-11T12:16:04.925Z,80.12
2023-01-11T12:18:42.955Z,80.73
2023-01-11T12:21:25.673Z,80.48
2023-01-11T12:24:27.189Z,80.69
2023-01-11T12:27:06.782Z,80.50
2023-01-11T12:29:42.589Z,80.72
2023-01-11T12:32:27.476Z,80.61
2023-01-11T12:35:03.096Z,75.56
2023-01-11T12:37:29.497Z,77.70
2023-01-11T12:40:40.698Z,77.27
2023-01-11T12:43:44.376Z,78.68
2023-01-11T12:46:38.669Z,78.63
2023-01-11T12:49:33.011Z,79.59
2023-01-11T12:52:10.004Z,80.86
2023-01-11T12:55:30.810Z,81.89
2023-01-11T12:58:15.244Z,79.86
2023-01-11T13:00:53.739Z,81.51
2023-01-11T13:03:23.463Z,79.04
2023-01-11T13:06:12.387Z,81.54
2023-01-11T13:09:09.093Z,81.51
2023-01-11T13:11:58.780Z,77.59
2023-01-11T13:14:35.804Z,79.00
2023-01-11T13:17:38.287Z,79.07
2023-01-11T13:20:23.518Z,75.98
2023-01-11T13:23:13.943Z,77.47
2023-01-11T13:25:55.869Z,77.40
2023-01-11T13:28:41.820Z,76.89
2023-01-11T13:31:12.666Z,82.65
2023-01-11T13:33:47.152Z,79.17
2023-01-11T13:36:23.285Z,80.17
2023-01-11T13:39:03.212Z,78.68
2023-01-11T13:41:55.800Z,78.84
2023-01-11T13:44:32.157Z,77.48
2023-01-11T13:47:06.002Z,78.17
2023-01-11T13:49:51.484Z,79.16
2023-01-11T13:52:25.308Z,76.70
2023-01-11T13:55:04.225Z,77.92
2023-01-11T13:57:50.556Z,79.50
2023-01-11T14:00:30.658Z,78.30
2023-01-11T14:03:10.840Z,78.36
2023-01-11T14:05:51.347Z,79.24
2023-01-11T14:08:54.956Z,79.75
2023-01-11T14:11:33.044Z,76.66
2023-01-11T14:14:20.536Z,79.70
2023-01-11T14:17:07.012Z,80.89
2023-01-11T14:19:53.611Z,80.01
2023-01-11T14:22:38.820Z,80.64
2023-01-11T14:25:32.515Z,80.00
2023-01-11T14:28:24.920Z,80.25
2023-01-11T14:31:48.858Z,80.77
2023-01-11T14:34:49.598Z,80.34
2023-01-11T14:37:44.123Z,81.11
2023-01-11T14:40:49.330Z,79.30
2023-01-11T14:43:53.741Z,81.64
2023-01-11T14:46:42.230Z,80.72
2023-01-11T14:49:21.800Z,81.56
2023-01-11T14:52:34.556Z,82.33
2023-01-11T14:55:35.298Z,81.88
2023-01-11T14:58:04.007Z,81.18
2023-01-11T15:00:30.567Z,80.80
2023-01-11T15:02:59.972Z,80.52
2023-01-11T15:05:31.437Z,81.63
2023-01-11T15:08:21.682Z,82.85
2023-01-11T15:11:01.097Z,82.71
2023-01-11T15:13:49.530Z,83.67
2023-01-11T15:16:50.676Z,83.70
2023-01-11T15:19:33.874Z,82.76
2023-01-11T15:22:04.191Z,81.97
2023-01-11T15:24:36.446Z,81.66
2023-01-11T15:27:03.473Z,82.08
2023-01-11T15:29:40.842Z,83.06
2023-01-11T15:32:17.184Z,83.36
2023-01-11T15:34:45.263Z,83.89
2023-01-11T15:37:43.723Z,83.98
2023-01-11T15:40:20.127Z,82.35
2023-01-11T15:42:49.789Z,82.46
2023-01-11T15:46:06.598Z,82.68
2023-01-11T15:49:23.192Z,82.98
2023-01-11T15:52:08.482Z,80.65
2023-01-11T15:54:45.776Z,82.89
2023-01-11T15:57:12.399Z,81.07
2023-01-11T16:00:17.948Z,82.54
2023-01-11T16:03:03.035Z,82.76
2023-01-11T16:05:35.083Z,83.13
2023-01-11T16:08:27.148Z,83.98
2023-01-11T16:11:03.284Z,82.72
2023-01-11T16:13:35.596Z,83.01
2023-01-11T16:16:17.883Z,83.36
2023-01-11T16:18:55.283Z,82.46
2023-01-11T16:21:27.474Z,82.10
2023-01-11T16:23:55.346Z,80.47
2023-01-11T16:26:22.302Z,81.09
2023-01-11T16:28:58.391Z,81.61
2023-01-11T16:31:26.579Z,81.87
2023-01-11T16:33:53.458Z,81.82
2023-01-11T16:36:22.823Z,81.79
2023-01-11T16:39:12.745Z,81.66
2023-01-11T16:41:53.439Z,81.09
2023-01-11T16:44:49.686Z,82.52
2023-01-11T16:47:21.445Z,81.56
2023-01-11T16:49:52.249Z,81.20
2023-01-11T16:52:27.912Z,81.07
2023-01-11T16:55:13.773Z,81.14
2023-01-11T16:57:44.705Z,80.25
2023-01-11T17:00:28.979Z,80.13
2023-01-11T17:03:44.213Z,82.62
2023-01-11T17:06:25.047Z,81.03
2023-01-11T17:08:54.321Z,80.50
2023-01-11T17:11:36.895Z,81.78
2023-01-11T17:14:12.356Z,81.47
2023-01-11T17:16:48.102Z,81.01
2023-01-11T17:19:25.022Z,80.77
2023-01-11T17:22:07.685Z,81.53
2023-01-11T17:24:40.868Z,80.28
2023-01-11T17:27:15.931Z,80.84
2023-01-11T17:29:43.069Z,82.91
2023-01-11T17:32:18.153Z,81.52
2023-01-11T17:34:45.625Z,80.72
2023-01-11T17:37:17.543Z,81.07
2023-01-11T17:39:55.236Z,80.47
2023-01-11T17:42:41.623Z,81.43
2023-01-11T17:45:23.739Z,81.65
2023-01-11T17:47:55.039Z,81.11
2023-01-11T17:50:21.785Z,80.08
2023-01-11T17:52:54.732Z,81.08
2023-01-11T17:55:26.957Z,81.31
2023-01-11T17:58:19.785Z,80.78
2023-01-11T18:01:08.771Z,81.93
2023-01-11T18:03:43.903Z,80.26
2023-01-11T18:06:14.153Z,80.03
2023-01-11T18:08:50.213Z,80.38
2023-01-11T18:11:29.609Z,80.75
2023-01-11T18:14:04.973Z,80.96
2023-01-11T18:16:32.965Z,80.72
2023-01-11T18:19:02.717Z,81.05
2023-01-11T18:21:36.725Z,80.60
2023-01-11T18:24:12.793Z,82.48
2023-01-11T18:26:41.596Z,82.44
2023-01-11T18:29:38.939Z,83.72
2023-01-11T18:32:09.469Z,83.97
2023-01-11T18:34:36.145Z,84.62
2023-01-11T18:37:08.281Z,85.02
2023-01-11T18:39:35.224Z,85.21
2023-01-11T18:42:10.052Z,85.39
2023-01-11T18:44:41.585Z,85.81
2023-01-11T18:47:17.955Z,86.02
2023-01-11T18:49:44.852Z,86.02
2023-01-11T18:52:11.782Z,87.10
2023-01-11T18:54:38.719Z,86.35
2023-01-11T18:57:05.473Z,87.21
2023-01-11T18:59:32.104Z,87.02
2023-01-11T19:02:17.264Z,87.78
2023-01-11T19:04:47.795Z,87.42
2023-01-11T19:07:14.784Z,87.21
2023-01-11T19:09:41.607Z,87.27
2023-01-11T19:12:08.425Z,86.52
2023-01-11T19:14:36.580Z,86.94
2023-01-11T19:17:06.711Z,86.50
2023-01-11T19:19:33.562Z,86.29
2023-01-11T19:22:00.159Z,86.79
2023-01-11T19:24:26.738Z,87.35
2023-01-11T19:26:53.364Z,87.72
2023-01-11T19:29:20.239Z,87.03
2023-01-11T19:31:47.487Z,86.89
2023-01-11T19:34:14.283Z,87.65
2023-01-11T19:36:40.970Z,87.27
2023-01-11T19:39:08.539Z,88.66
2023-01-11T19:41:55.194Z,88.05
2023-01-11T19:44:27.100Z,89.02
2023-01-11T19:47:09.555Z,89.50
2023-01-11T19:49:37.570Z,88.56
2023-01-11T19:52:05.771Z,89.95
2023-01-11T19:54:32.286Z,91.52
2023-01-11T19:56:58.921Z,91.47
2023-01-11T19:59:25.493Z,91.15
2023-01-11T20:01:52.172Z,90.59
2023-01-11T20:04:19.079Z,91.50
2023-01-11T20:06:50.351Z,91.78
2023-01-11T20:09:21.549Z,91.42
2023-01-11T20:11:53.070Z,92.05
2023-01-11T20:14:20.240Z,92.10
2023-01-11T20:16:46.841Z,92.95
2023-01-11T20:19:14.944Z,93.05
2023-01-11T20:21:41.990Z,92.71
2023-01-11T20:24:16.793Z,91.84
2023-01-11T20:26:45.369Z,91.95
2023-01-11T20:29:12.929Z,92.36
2023-01-11T20:31:39.565Z,92.51
2023-01-11T20:34:09.400Z,92.36
2023-01-11T20:36:36.447Z,92.85
2023-01-11T20:39:04.319Z,92.59
2023-01-11T20:41:49.991Z,92.70
2023-01-11T20:44:24.883Z,92.74
2023-01-11T20:46:54.208Z,92.74
2023-01-11T20:49:26.290Z,92.81
2023-01-11T20:51:53.472Z,92.95
2023-01-11T20:54:49.635Z,92.77
2023-01-11T20:57:16.327Z,92.89
2023-01-11T20:59:42.920Z,92.78
2023-01-11T21:02:10.910Z,92.78
2023-01-11T21:04:38.028Z,92.46
2023-01-11T21:07:04.824Z,92.17
2023-01-11T21:09:34.325Z,93.04
2023-01-11T21:12:03.384Z,91.92
2023-01-11T21:14:30.482Z,91.74
2023-01-11T21:16:58.178Z,92.38
2023-01-11T21:19:25.756Z,92.50
2023-01-11T21:21:52.447Z,92.38
2023-01-11T21:24:19.005Z,92.80
2023-01-11T21:26:45.764Z,92.29
2023-01-11T21:29:13.218Z,92.49
2023-01-11T21:31:41.499Z,92.13
2023-01-11T21:34:09.868Z,92.08
2023-01-11T21:36:36.451Z,92.84
2023-01-11T21:39:03.364Z,92.57
2023-01-11T21:41:50.458Z,92.41
2023-01-11T21:44:17.899Z,92.57
2023-01-11T21:46:45.200Z,92.41
2023-01-11T21:49:12.806Z,92.75
2023-01-11T21:51:40.370Z,93.00
2023-01-11T21:54:13.904Z,92.63
2023-01-11T21:56:41.941Z,92.70
2023-01-11T21:59:08.597Z,92.75
2023-01-11T22:01:35.211Z,93.28
2023-01-11T22:04:06.629Z,92.04
2023-01-11T22:06:37.600Z,92.07
2023-01-11T22:09:05.326Z,92.16
2023-01-11T22:11:35.611Z,91.66
2023-01-11T22:14:03.702Z,92.36
2023-01-11T22:16:31.653Z,91.74
2023-01-11T22:18:59.711Z,91.87
2023-01-11T22:21:26.921Z,91.53
2023-01-11T22:23:58.504Z,91.58
2023-01-11T22:26:26.382Z,91.81
2023-01-11T22:29:13.718Z,90.94
2023-01-11T22:32:02.640Z,91.47
2023-01-11T22:34:29.232Z,91.06
2023-01-11T22:36:55.737Z,91.22
2023-01-11T22:39:24.021Z,91.56
2023-01-11T22:41:51.262Z,91.49
2023-01-11T22:44:18.403Z,91.01
2023-01-11T22:46:45.546Z,91.11
2023-01-11T22:49:12.876Z,90.92
2023-01-11T22:51:41.075Z,91.35
2023-01-11T22:54:08.081Z,92.39
2023-01-11T22:56:34.666Z,91.77
2023-01-11T22:59:01.289Z,91.02
2023-01-11T23:01:36.683Z,90.78
2023-01-11T23:04:04.495Z,90.85
2023-01-11T23:06:34.044Z,91.45
2023-01-11T23:09:03.325Z,91.03
2023-01-11T23:11:50.688Z,90.87
2023-01-11T23:14:19.346Z,90.76
2023-01-11T23:16:47.796Z,90.32
2023-01-11T23:19:17.361Z,90.95
2023-01-11T23:21:45.582Z,90.34
2023-01-11T23:24:14.390Z,90.65
2023-01-11T23:26:41.029Z,90.38
2023-01-11T23:29:07.719Z,91.16
2023-01-11T23:31:35.165Z,90.87
2023-01-11T23:34:02.818Z,89.80
2023-01-11T23:36:32.004Z,90.42
2023-01-11T23:38:58.754Z,90.37
2023-01-11T23:41:44.948Z,90.34
2023-01-11T23:44:13.949Z,90.87
2023-01-11T23:47:02.361Z,90.97
2023-01-11T23:49:30.069Z,91.24
2023-01-11T23:51:57.085Z,90.70
2023-01-11T23:54:27.238Z,91.27
2023-01-11T23:56:53.925Z,90.26
2023-01-11T23:59:20.485Z,90.46
